Terminal Aerodrome Forecast
Issued by NWS

Home | Current Version | Previous Version | Text Only | Print | Product List | Glossary On
Versions: 1 2 3 4 5 6 7 8 9 10 11 12 13 14 15 16 17
000
FTUS45 KFGZ 202300
TAFGCN
TAF
KGCN 202320Z 2100/2124 18009KT P6SM VCSH SCT060 BKN090
      TEMPO 2100/2104 VRB10G20KT 5SM TSRA OVC050CB
     FM210400 VRB03KT P6SM -SHRA SCT050 BKN070
     FM211000 VRB05KT P6SM BKN060 OVC120 PROB30 2117/2123 5SM -TSRA
      BKN040CB=

USA.gov is the U.S. government's official web portal to all federal, state and local government web resources and services.